createdAt,value
2023-05-02T00:02:24.168Z,79.90
2023-05-02T00:04:51.671Z,79.70
2023-05-02T00:07:18.482Z,79.80
2023-05-02T00:09:45.350Z,80.00
2023-05-02T00:12:12.189Z,80.00
2023-05-02T00:14:39.031Z,79.90
2023-05-02T00:17:06.158Z,80.00
2023-05-02T00:19:35.695Z,79.70
2023-05-02T00:22:02.848Z,79.70
2023-05-02T00:24:29.772Z,79.50
2023-05-02T00:26:56.628Z,79.30
2023-05-02T00:29:23.579Z,79.40
2023-05-02T00:31:50.551Z,79.30
2023-05-02T00:34:17.494Z,79.30
2023-05-02T00:36:44.385Z,79.50
2023-05-02T00:39:11.464Z,79.30
2023-05-02T00:41:38.335Z,79.60
2023-05-02T00:44:05.430Z,79.50
2023-05-02T00:46:32.394Z,79.20
2023-05-02T00:48:59.307Z,79.20
2023-05-02T00:51:27.512Z,79.20
2023-05-02T00:53:54.309Z,79.20
2023-05-02T00:56:21.702Z,79.00
2023-05-02T00:58:48.710Z,78.90
2023-05-02T01:01:40.524Z,79.00
2023-05-02T01:04:30.444Z,79.20
2023-05-02T01:07:17.826Z,79.00
2023-05-02T01:09:44.615Z,79.00
2023-05-02T01:12:43.681Z,79.00
2023-05-02T01:15:17.594Z,79.10
2023-05-02T01:17:44.532Z,78.90
2023-05-02T01:20:17.251Z,79.00
2023-05-02T01:22:44.923Z,78.90
2023-05-02T01:25:23.832Z,79.00
2023-05-02T01:28:14.587Z,79.00
2023-05-02T01:30:44.718Z,79.10
2023-05-02T01:33:15.063Z,79.20
2023-05-02T01:35:43.702Z,79.10
2023-05-02T01:38:15.367Z,79.30
2023-05-02T01:40:45.705Z,79.00
2023-05-02T01:43:14.568Z,78.80
2023-05-02T01:45:44.120Z,79.30
2023-05-02T01:48:11.984Z,79.10
2023-05-02T01:50:41.710Z,79.20
2023-05-02T01:53:11.494Z,79.40
2023-05-02T01:55:40.086Z,79.20
2023-05-02T01:58:07.797Z,79.20
2023-05-02T02:00:35.089Z,79.20
2023-05-02T02:03:03.490Z,79.10
2023-05-02T02:05:31.099Z,79.30
2023-05-02T02:07:58.667Z,79.30
2023-05-02T02:10:29.604Z,79.20
2023-05-02T02:13:04.617Z,79.10
2023-05-02T02:15:35.255Z,79.60
2023-05-02T02:18:09.929Z,79.50
2023-05-02T02:20:37.850Z,79.40
2023-05-02T02:23:08.734Z,79.30
2023-05-02T02:25:37.622Z,79.30
2023-05-02T02:28:04.974Z,79.20
2023-05-02T02:30:32.122Z,79.30
2023-05-02T02:32:59.148Z,79.10
2023-05-02T02:35:34.015Z,78.80
2023-05-02T02:38:20.651Z,78.80
2023-05-02T02:40:55.150Z,78.60
2023-05-02T02:43:51.408Z,78.60
2023-05-02T02:46:33.003Z,78.70
2023-05-02T02:49:27.184Z,78.60
2023-05-02T02:51:57.736Z,78.60
2023-05-02T02:54:53.377Z,78.70
2023-05-02T02:57:47.490Z,78.70
2023-05-02T03:00:24.523Z,78.70
2023-05-02T03:02:53.386Z,78.70
2023-05-02T03:05:22.448Z,78.60
2023-05-02T03:07:49.430Z,78.50
2023-05-02T03:10:16.608Z,78.80
2023-05-02T03:12:43.704Z,78.80
2023-05-02T03:15:44.552Z,78.60
2023-05-02T03:18:11.568Z,78.80
2023-05-02T03:20:38.770Z,78.60
2023-05-02T03:23:05.665Z,78.80
2023-05-02T03:25:32.515Z,78.70
2023-05-02T03:27:59.433Z,78.80
2023-05-02T03:30:26.309Z,78.80
2023-05-02T03:32:53.170Z,78.70
2023-05-02T03:35:20.143Z,78.60
2023-05-02T03:37:47.082Z,78.80
2023-05-02T03:40:14.892Z,78.50
2023-05-02T03:42:42.617Z,78.20
2023-05-02T03:45:10.358Z,78.60
2023-05-02T03:47:37.539Z,78.40
2023-05-02T03:50:04.666Z,78.50
2023-05-02T03:52:31.498Z,78.60
2023-05-02T03:54:58.355Z,78.40
2023-05-02T03:57:25.208Z,78.30
2023-05-02T03:59:52.036Z,78.50
2023-05-02T04:02:19.052Z,78.40
2023-05-02T04:04:45.950Z,78.20
2023-05-02T04:07:18.280Z,78.50
2023-05-02T04:09:45.951Z,78.50
2023-05-02T04:12:16.313Z,78.40
2023-05-02T04:14:43.474Z,78.40
2023-05-02T04:17:10.670Z,78.40
2023-05-02T04:19:37.667Z,78.50
2023-05-02T04:22:04.582Z,78.70
2023-05-02T04:24:31.368Z,78.70
2023-05-02T04:26:58.231Z,78.40
2023-05-02T04:29:25.104Z,78.60
2023-05-02T04:31:52.278Z,78.40
2023-05-02T04:34:19.190Z,78.40
2023-05-02T04:36:46.974Z,78.50
2023-05-02T04:39:14.080Z,78.40
2023-05-02T04:41:40.920Z,78.50
2023-05-02T04:44:07.795Z,78.60
2023-05-02T04:46:34.686Z,78.60
2023-05-02T04:49:01.635Z,78.50
2023-05-02T04:51:29.310Z,78.60
2023-05-02T04:53:56.750Z,78.30
2023-05-02T04:56:23.690Z,78.50
2023-05-02T04:58:50.595Z,78.30
2023-05-02T05:01:18.160Z,78.70
2023-05-02T05:03:45.266Z,78.50
2023-05-02T05:06:12.732Z,78.60
2023-05-02T05:08:40.034Z,78.70
2023-05-02T05:11:07.241Z,78.40
2023-05-02T05:13:34.263Z,78.30
2023-05-02T05:16:01.127Z,78.30
2023-05-02T05:18:28.120Z,78.00
2023-05-02T05:20:55.039Z,78.20
2023-05-02T05:23:22.131Z,78.10
2023-05-02T05:25:49.042Z,78.10
2023-05-02T05:28:16.044Z,77.80
2023-05-02T05:30:42.895Z,78.10
2023-05-02T05:33:09.812Z,77.80
2023-05-02T05:35:36.789Z,77.80
2023-05-02T05:38:03.616Z,77.80
2023-05-02T05:40:30.532Z,77.70
2023-05-02T05:42:57.496Z,77.80
2023-05-02T05:45:24.335Z,77.50
2023-05-02T05:47:51.699Z,77.30
2023-05-02T05:50:18.552Z,75.90
2023-05-02T05:52:45.562Z,76.00
2023-05-02T05:55:12.503Z,75.10
2023-05-02T05:57:39.422Z,75.50
2023-05-02T06:00:08.366Z,75.90
2023-05-02T06:02:35.469Z,75.10
2023-05-02T06:05:02.495Z,74.10
2023-05-02T06:07:29.476Z,73.70
2023-05-02T06:09:56.310Z,73.40
2023-05-02T06:12:23.214Z,72.40
2023-05-02T06:14:50.160Z,71.70
2023-05-02T06:17:17.017Z,71.50
2023-05-02T06:19:44.108Z,71.30
2023-05-02T06:22:14.121Z,71.60
2023-05-02T06:24:41.065Z,70.90
2023-05-02T06:27:08.008Z,70.80
2023-05-02T06:29:34.866Z,68.90
2023-05-02T06:32:01.867Z,68.90
2023-05-02T06:34:28.866Z,67.70
2023-05-02T06:36:56.986Z,63.70
2023-05-02T06:39:23.880Z,63.00
2023-05-02T06:41:50.927Z,64.20
2023-05-02T06:44:17.781Z,64.80
2023-05-02T06:46:44.732Z,63.70
2023-05-02T06:49:11.623Z,62.90
2023-05-02T06:51:38.560Z,62.90
2023-05-02T06:54:06.294Z,62.00
2023-05-02T06:56:33.223Z,63.00
2023-05-02T06:59:00.443Z,61.20
2023-05-02T07:01:27.510Z,59.60
2023-05-02T07:03:54.562Z,59.30
2023-05-02T07:06:22.004Z,58.00
2023-05-02T07:08:49.022Z,58.60
2023-05-02T07:11:16.155Z,57.50
2023-05-02T07:13:43.617Z,55.80
2023-05-02T07:16:10.680Z,56.90
2023-05-02T07:18:37.690Z,57.20
2023-05-02T07:21:04.981Z,56.50
2023-05-02T07:23:31.951Z,56.80
2023-05-02T07:25:58.848Z,57.30
2023-05-02T07:28:25.723Z,57.00
2023-05-02T07:30:52.589Z,56.70
2023-05-02T07:33:19.595Z,55.30
2023-05-02T07:35:46.645Z,55.40
2023-05-02T07:38:14.223Z,55.00
2023-05-02T07:40:42.122Z,54.60
2023-05-02T07:43:11.080Z,55.30
2023-05-02T07:45:38.198Z,55.30
2023-05-02T07:48:05.258Z,55.10
2023-05-02T07:50:32.273Z,56.20
2023-05-02T07:52:59.164Z,56.10
2023-05-02T07:55:29.256Z,55.90
2023-05-02T07:57:56.168Z,55.40
2023-05-02T08:00:23.137Z,55.70
2023-05-02T08:02:50.125Z,55.30
2023-05-02T08:05:17.378Z,55.70
2023-05-02T08:07:44.264Z,55.30
2023-05-02T08:10:11.212Z,55.20
2023-05-02T08:12:42.366Z,55.70
2023-05-02T08:15:12.261Z,55.80
2023-05-02T08:17:39.269Z,55.50
2023-05-02T08:20:06.827Z,55.00
2023-05-02T08:22:33.759Z,55.80
2023-05-02T08:25:00.702Z,55.40
2023-05-02T08:27:27.790Z,54.70
2023-05-02T08:29:54.648Z,54.80
2023-05-02T08:32:22.480Z,54.60
2023-05-02T08:34:51.085Z,54.10
2023-05-02T08:37:18.574Z,54.70
2023-05-02T08:39:45.708Z,53.10
2023-05-02T08:42:12.678Z,52.90
2023-05-02T08:44:39.754Z,52.60
2023-05-02T08:47:08.026Z,52.40
2023-05-02T08:49:36.366Z,52.90
2023-05-02T08:52:04.605Z,53.00
2023-05-02T08:54:32.102Z,52.50
2023-05-02T08:57:02.949Z,52.30
2023-05-02T08:59:29.851Z,52.60
2023-05-02T09:02:02.225Z,51.60
2023-05-02T09:04:35.083Z,51.80
2023-05-02T09:07:02.165Z,52.20
2023-05-02T09:09:31.787Z,52.60
2023-05-02T09:11:58.792Z,53.80
2023-05-02T09:14:26.178Z,54.10
2023-05-02T09:16:59.974Z,54.30
2023-05-02T09:19:27.325Z,54.20
2023-05-02T09:22:03.786Z,54.80
2023-05-02T09:24:30.743Z,54.70
2023-05-02T09:27:05.015Z,54.70
2023-05-02T09:29:37.801Z,54.50
2023-05-02T09:32:06.306Z,54.50
2023-05-02T09:34:34.167Z,54.60
2023-05-02T09:37:01.587Z,54.60
2023-05-02T09:39:29.588Z,54.70
2023-05-02T09:41:57.781Z,54.90
2023-05-02T09:44:37.320Z,54.80
2023-05-02T09:47:04.445Z,55.40
2023-05-02T09:49:45.380Z,55.40
2023-05-02T09:52:15.534Z,56.10
2023-05-02T09:54:42.713Z,56.40
2023-05-02T09:57:11.213Z,56.80
2023-05-02T09:59:39.560Z,57.20
2023-05-02T10:02:09.775Z,57.10
2023-05-02T10:04:38.208Z,57.20
2023-05-02T10:07:06.788Z,56.60
2023-05-02T10:09:36.328Z,56.40
2023-05-02T10:12:05.201Z,56.10
2023-05-02T10:14:35.632Z,56.70
2023-05-02T10:17:12.585Z,56.90
2023-05-02T10:19:53.615Z,56.30
2023-05-02T10:22:21.280Z,55.90
2023-05-02T10:24:51.853Z,55.60
2023-05-02T10:27:19.431Z,55.90
2023-05-02T10:29:47.719Z,56.00
2023-05-02T10:32:17.955Z,55.20
2023-05-02T10:34:46.521Z,55.60
2023-05-02T10:37:13.426Z,55.90
2023-05-02T10:39:40.326Z,56.10
2023-05-02T10:42:08.258Z,56.70
2023-05-02T10:44:40.566Z,56.90
2023-05-02T10:47:23.410Z,57.20
2023-05-02T10:50:02.216Z,56.50
2023-05-02T10:52:41.532Z,56.90
2023-05-02T10:55:22.402Z,57.20
2023-05-02T10:57:58.845Z,56.80
2023-05-02T11:00:30.260Z,57.00
2023-05-02T11:02:57.445Z,57.40
2023-05-02T11:05:25.227Z,56.90
2023-05-02T11:08:19.387Z,56.90
2023-05-02T11:10:48.052Z,56.50
2023-05-02T11:13:15.051Z,56.80
2023-05-02T11:15:41.912Z,57.00
2023-05-02T11:18:13.646Z,57.00
2023-05-02T11:20:45.953Z,57.30
2023-05-02T11:23:15.960Z,57.70
2023-05-02T11:25:45.298Z,57.90
2023-05-02T11:28:38.248Z,57.20
2023-05-02T11:31:10.896Z,57.60
2023-05-02T11:33:37.955Z,57.90
2023-05-02T11:36:04.937Z,57.10
2023-05-02T11:38:39.545Z,57.50
2023-05-02T11:41:06.498Z,58.20
2023-05-02T11:43:33.402Z,57.60
2023-05-02T11:46:02.343Z,57.80
2023-05-02T11:48:30.755Z,58.80
2023-05-02T11:51:02.442Z,58.40
2023-05-02T11:53:30.137Z,57.70
2023-05-02T11:55:59.850Z,58.60
2023-05-02T11:58:32.842Z,59.10
2023-05-02T12:01:16.500Z,59.00
2023-05-02T12:03:43.906Z,58.90
2023-05-02T12:06:16.051Z,58.30
2023-05-02T12:08:44.395Z,58.10
2023-05-02T12:11:16.261Z,58.70
2023-05-02T12:13:48.201Z,60.00
2023-05-02T12:16:16.010Z,59.10
2023-05-02T12:18:43.477Z,59.50
2023-05-02T12:21:10.535Z,59.60
2023-05-02T12:23:39.595Z,60.70
2023-05-02T12:26:29.534Z,60.00
2023-05-02T12:28:57.251Z,59.60
2023-05-02T12:31:25.048Z,60.60
2023-05-02T12:33:52.652Z,61.70
2023-05-02T12:36:19.951Z,59.80
2023-05-02T12:38:59.522Z,60.80
2023-05-02T12:41:38.352Z,61.60
2023-05-02T12:44:07.338Z,62.80
2023-05-02T12:46:34.333Z,62.90
2023-05-02T12:49:16.801Z,63.40
2023-05-02T12:51:54.040Z,63.20
2023-05-02T12:54:21.365Z,62.40
2023-05-02T12:56:48.927Z,63.00
2023-05-02T12:59:32.349Z,62.70
2023-05-02T13:02:00.520Z,62.20
2023-05-02T13:04:38.963Z,62.90
2023-05-02T13:07:05.903Z,62.30
2023-05-02T13:09:32.855Z,62.50
2023-05-02T13:11:59.786Z,62.30
2023-05-02T13:14:26.952Z,62.40
2023-05-02T13:16:55.276Z,63.20
2023-05-02T13:19:22.764Z,62.00
2023-05-02T13:21:49.977Z,61.00
2023-05-02T13:24:17.559Z,60.50
2023-05-02T13:26:44.702Z,61.00
2023-05-02T13:29:12.756Z,61.60
2023-05-02T13:31:39.660Z,61.40
2023-05-02T13:34:07.055Z,62.40
2023-05-02T13:36:33.956Z,61.40
2023-05-02T13:39:01.820Z,60.10
2023-05-02T13:41:28.724Z,60.10
2023-05-02T13:43:56.918Z,60.60
2023-05-02T13:46:23.958Z,60.70
2023-05-02T13:48:50.979Z,60.80
2023-05-02T13:51:17.944Z,60.80
2023-05-02T13:53:44.768Z,60.90
2023-05-02T13:56:11.625Z,60.70
2023-05-02T13:58:38.754Z,61.10
2023-05-02T14:01:05.812Z,61.20
2023-05-02T14:03:32.841Z,61.40
2023-05-02T14:05:59.864Z,60.50
2023-05-02T14:08:27.106Z,60.40
2023-05-02T14:10:54.127Z,61.20
2023-05-02T14:13:21.157Z,60.00
2023-05-02T14:15:48.013Z,59.40
2023-05-02T14:18:16.627Z,59.70
2023-05-02T14:20:43.613Z,60.20
2023-05-02T14:23:10.632Z,59.40
2023-05-02T14:25:37.606Z,59.70
2023-05-02T14:28:05.802Z,59.90
2023-05-02T14:30:32.714Z,60.40
2023-05-02T14:32:59.696Z,59.40
2023-05-02T14:35:26.685Z,59.80
2023-05-02T14:37:53.507Z,58.90
2023-05-02T14:40:20.422Z,58.80
2023-05-02T14:42:47.413Z,59.10
2023-05-02T14:45:14.464Z,59.30
2023-05-02T14:47:41.747Z,59.00
2023-05-02T14:50:09.048Z,58.80
2023-05-02T14:52:50.122Z,59.00
2023-05-02T14:55:21.190Z,59.50
2023-05-02T14:57:52.618Z,59.60
2023-05-02T15:00:19.721Z,59.60
2023-05-02T15:02:46.770Z,59.60
2023-05-02T15:05:13.958Z,59.70
2023-05-02T15:07:40.915Z,59.40
2023-05-02T15:10:08.280Z,58.90
2023-05-02T15:12:35.151Z,59.40
2023-05-02T15:15:02.146Z,59.70
2023-05-02T15:17:29.684Z,60.10
2023-05-02T15:19:58.520Z,60.40
2023-05-02T15:22:29.366Z,60.70
2023-05-02T15:24:56.212Z,60.50
2023-05-02T15:27:23.170Z,60.50
2023-05-02T15:29:50.080Z,60.20
2023-05-02T15:32:16.929Z,60.10
2023-05-02T15:34:43.857Z,60.20
2023-05-02T15:37:11.330Z,60.40
2023-05-02T15:39:38.366Z,60.40
2023-05-02T15:42:06.257Z,60.20
2023-05-02T15:44:37.454Z,60.40
2023-05-02T15:47:05.235Z,60.80
2023-05-02T15:49:33.425Z,61.30
2023-05-02T15:52:02.024Z,61.80
2023-05-02T15:54:29.104Z,61.40
2023-05-02T15:56:55.998Z,61.50
2023-05-02T15:59:22.967Z,61.40
2023-05-02T16:01:50.217Z,61.10
2023-05-02T16:04:17.266Z,60.30
2023-05-02T16:06:44.562Z,60.90
2023-05-02T16:09:12.838Z,61.10
2023-05-02T16:11:39.914Z,61.30
2023-05-02T16:14:06.947Z,61.30
2023-05-02T16:16:34.460Z,61.40
2023-05-02T16:19:01.511Z,61.40
2023-05-02T16:21:28.606Z,61.30
2023-05-02T16:23:55.763Z,61.00
2023-05-02T16:26:22.713Z,61.10
2023-05-02T16:28:49.888Z,61.40
2023-05-02T16:31:16.846Z,61.50
2023-05-02T16:33:43.750Z,61.70
2023-05-02T16:36:10.890Z,61.50
2023-05-02T16:38:39.885Z,61.80
2023-05-02T16:41:07.323Z,61.70
2023-05-02T16:43:34.966Z,61.50
2023-05-02T16:46:03.479Z,61.50
2023-05-02T16:48:30.606Z,61.50
2023-05-02T16:50:59.350Z,61.60
2023-05-02T16:53:27.702Z,61.70
2023-05-02T16:55:54.876Z,61.40
2023-05-02T16:58:21.821Z,61.30
2023-05-02T17:00:48.809Z,62.00
2023-05-02T17:03:15.918Z,62.00
2023-05-02T17:05:42.876Z,62.00
2023-05-02T17:08:11.049Z,62.00
2023-05-02T17:10:38.035Z,61.90
2023-05-02T17:13:04.932Z,62.30
2023-05-02T17:15:38.603Z,62.40
2023-05-02T17:18:06.676Z,62.50
2023-05-02T17:20:33.862Z,62.70
2023-05-02T17:23:01.668Z,63.00
2023-05-02T17:25:28.564Z,63.20
2023-05-02T17:27:55.797Z,63.20
2023-05-02T17:30:23.837Z,63.40
2023-05-02T17:32:51.251Z,63.10
2023-05-02T17:35:18.295Z,63.10
2023-05-02T17:37:45.400Z,63.50
2023-05-02T17:40:12.623Z,63.70
2023-05-02T17:42:39.511Z,64.20
2023-05-02T17:45:07.524Z,64.00
2023-05-02T17:47:34.469Z,64.00
2023-05-02T17:50:04.771Z,64.80
2023-05-02T17:52:33.271Z,64.50
2023-05-02T17:55:00.341Z,64.10
2023-05-02T17:57:27.757Z,64.20
2023-05-02T17:59:58.466Z,65.30
2023-05-02T18:02:28.458Z,64.30
2023-05-02T18:04:55.423Z,65.30
2023-05-02T18:07:25.355Z,65.20
2023-05-02T18:09:52.711Z,65.10
2023-05-02T18:12:19.635Z,64.50
2023-05-02T18:14:46.709Z,64.90
2023-05-02T18:17:13.767Z,65.00
2023-05-02T18:19:41.302Z,64.90
2023-05-02T18:22:08.667Z,64.80
2023-05-02T18:24:36.270Z,65.00
2023-05-02T18:27:03.397Z,64.50
2023-05-02T18:29:30.261Z,65.00
2023-05-02T18:31:57.242Z,64.60
2023-05-02T18:34:24.369Z,64.80
2023-05-02T18:36:51.273Z,64.70
2023-05-02T18:39:21.573Z,64.70
2023-05-02T18:41:48.456Z,65.10
2023-05-02T18:44:15.360Z,65.00
2023-05-02T18:46:42.359Z,65.10
2023-05-02T18:49:09.805Z,65.30
2023-05-02T18:51:36.612Z,64.90
2023-05-02T18:54:03.691Z,65.10
2023-05-02T18:56:30.678Z,65.10
2023-05-02T18:58:57.648Z,64.90
2023-05-02T19:01:24.942Z,65.20
2023-05-02T19:03:55.319Z,65.30
2023-05-02T19:06:22.352Z,65.30
2023-05-02T19:08:49.304Z,64.90
2023-05-02T19:11:16.191Z,64.40
2023-05-02T19:13:43.078Z,64.90
2023-05-02T19:16:12.432Z,64.70
2023-05-02T19:18:41.070Z,64.90
2023-05-02T19:21:15.497Z,65.10
2023-05-02T19:23:43.419Z,64.70
2023-05-02T19:26:15.454Z,65.20
2023-05-02T19:28:43.350Z,64.80
2023-05-02T19:31:15.414Z,64.60
2023-05-02T19:33:52.290Z,64.70
2023-05-02T19:36:20.432Z,64.60
2023-05-02T19:38:51.997Z,64.40
2023-05-02T19:41:19.015Z,64.30
2023-05-02T19:43:46.161Z,64.10
2023-05-02T19:46:15.012Z,64.10
2023-05-02T19:48:42.192Z,64.10
2023-05-02T19:51:09.452Z,64.30
2023-05-02T19:53:37.793Z,64.20
2023-05-02T19:56:07.330Z,64.40
2023-05-02T19:58:37.051Z,64.60
2023-05-02T20:01:04.027Z,64.40
2023-05-02T20:03:31.044Z,64.50
2023-05-02T20:05:58.609Z,64.50
2023-05-02T20:08:27.814Z,64.50
2023-05-02T20:10:55.864Z,64.20
2023-05-02T20:13:22.870Z,64.20
2023-05-02T20:15:50.889Z,64.40
2023-05-02T20:18:17.841Z,63.90
2023-05-02T20:20:44.837Z,64.10
2023-05-02T20:23:12.323Z,64.10
2023-05-02T20:25:42.424Z,64.20
2023-05-02T20:28:09.692Z,64.80
2023-05-02T20:30:36.638Z,64.40
2023-05-02T20:33:14.003Z,64.60
2023-05-02T20:35:42.157Z,64.10
2023-05-02T20:38:09.153Z,64.30
2023-05-02T20:40:39.591Z,64.50
2023-05-02T20:43:06.604Z,64.40
2023-05-02T20:45:33.543Z,64.20
2023-05-02T20:48:00.446Z,64.20
2023-05-02T20:50:27.472Z,64.60
2023-05-02T20:52:55.210Z,65.20
2023-05-02T20:55:23.047Z,65.20
2023-05-02T20:57:53.486Z,64.60
2023-05-02T21:00:23.618Z,64.40
2023-05-02T21:02:50.774Z,64.70
2023-05-02T21:05:17.973Z,64.20
2023-05-02T21:07:45.108Z,64.80
2023-05-02T21:10:12.184Z,64.40
2023-05-02T21:12:39.562Z,64.80
2023-05-02T21:15:07.839Z,64.80
2023-05-02T21:17:34.915Z,64.40
2023-05-02T21:20:02.207Z,64.50
2023-05-02T21:22:29.418Z,64.40
2023-05-02T21:24:56.301Z,64.30
2023-05-02T21:27:23.355Z,64.20
2023-05-02T21:29:50.365Z,63.90
2023-05-02T21:32:17.184Z,64.20
2023-05-02T21:34:44.071Z,64.30
2023-05-02T21:37:10.912Z,64.90
2023-05-02T21:39:38.955Z,64.40
2023-05-02T21:42:06.208Z,64.00
2023-05-02T21:44:33.044Z,64.40
2023-05-02T21:47:00.072Z,64.30
2023-05-02T21:49:30.235Z,64.40
2023-05-02T21:51:58.414Z,64.40
2023-05-02T21:54:25.618Z,64.10
2023-05-02T21:56:54.021Z,64.30
2023-05-02T21:59:21.103Z,64.70
2023-05-02T22:01:47.999Z,64.80
2023-05-02T22:04:14.908Z,64.70
2023-05-02T22:06:42.998Z,64.20
2023-05-02T22:09:10.441Z,64.50
2023-05-02T22:11:37.509Z,64.30
2023-05-02T22:14:04.445Z,64.20
2023-05-02T22:16:31.387Z,64.10
2023-05-02T22:18:58.360Z,64.70
2023-05-02T22:21:25.406Z,64.20
2023-05-02T22:23:52.265Z,64.20
2023-05-02T22:26:19.169Z,64.30
2023-05-02T22:28:46.144Z,63.90
2023-05-02T22:31:14.163Z,63.90
2023-05-02T22:33:45.809Z,64.00
2023-05-02T22:36:12.798Z,63.60
2023-05-02T22:38:40.009Z,64.00
2023-05-02T22:41:06.888Z,64.60
2023-05-02T22:43:33.847Z,64.00
2023-05-02T22:46:00.851Z,63.60
2023-05-02T22:48:27.820Z,63.50
2023-05-02T22:50:55.257Z,63.30
2023-05-02T22:53:23.563Z,63.70
2023-05-02T22:55:51.372Z,63.60
2023-05-02T22:58:18.305Z,63.80
2023-05-02T23:00:45.217Z,64.00
2023-05-02T23:03:12.745Z,64.20
2023-05-02T23:05:39.830Z,64.20
2023-05-02T23:08:06.752Z,63.40
2023-05-02T23:10:33.601Z,63.90
2023-05-02T23:13:00.489Z,64.40
2023-05-02T23:15:27.420Z,64.30
2023-05-02T23:17:54.377Z,64.40
2023-05-02T23:20:23.132Z,64.00
2023-05-02T23:22:50.099Z,64.00
2023-05-02T23:25:17.478Z,64.30
2023-05-02T23:27:44.373Z,64.00
2023-05-02T23:30:11.782Z,64.20
2023-05-02T23:32:39.482Z,63.70
2023-05-02T23:35:07.014Z,64.00
2023-05-02T23:37:34.099Z,63.80
2023-05-02T23:40:01.500Z,64.00
2023-05-02T23:42:33.973Z,64.00
2023-05-02T23:45:00.898Z,64.00
2023-05-02T23:47:28.248Z,63.80
2023-05-02T23:49:55.288Z,63.70
2023-05-02T23:52:22.252Z,64.00
2023-05-02T23:54:49.218Z,63.60
2023-05-02T23:57:16.142Z,63.60
2023-05-02T23:59:43.001Z,63.60
